sensor_id;sensor_type;location;lat;lon;timestamp;temperature;humidity
4677;DHT22;2352;48.180;11.478;2024-01-15T00:03:42;1.20;70.70
4677;DHT22;2352;48.180;11.478;2024-01-15T00:08:48;1.00;71.20
4677;DHT22;2352;48.180;11.478;2024-01-15T00:13:53;1.10;71.20
4677;DHT22;2352;48.180;11.478;2024-01-15T00:18:56;1.20;70.90
4677;DHT22;2352;48.180;11.478;2024-01-15T00:23:59;1.10;71.00
4677;DHT22;2352;48.180;11.478;2024-01-15T00:29:03;1.20;70.60
4677;DHT22;2352;48.180;11.478;2024-01-15T00:34:06;1.20;70.70
4677;DHT22;2352;48.180;11.478;2024-01-15T00:39:09;1.20;70.40
4677;DHT22;2352;48.180;11.478;2024-01-15T00:44:14;1.20;70.40
4677;DHT22;2352;48.180;11.478;2024-01-15T00:49:17;1.20;69.90
4677;DHT22;2352;48.180;11.478;2024-01-15T00:54:20;1.20;69.70
4677;DHT22;2352;48.180;11.478;2024-01-15T00:59:25;1.10;68.80
4677;DHT22;2352;48.180;11.478;2024-01-15T01:04:28;0.60;68.10
4677;DHT22;2352;48.180;11.478;2024-01-15T01:09:31;0.60;68.20
4677;DHT22;2352;48.180;11.478;2024-01-15T01:14:36;0.60;67.80
4677;DHT22;2352;48.180;11.478;2024-01-15T01:19:38;0.50;67.60
4677;DHT22;2352;48.180;11.478;2024-01-15T01:24:42;0.30;67.90
4677;DHT22;2352;48.180;11.478;2024-01-15T01:29:46;0.40;67.70
4677;DHT22;2352;48.180;11.478;2024-01-15T01:34:49;0.40;67.10
4677;DHT22;2352;48.180;11.478;2024-01-15T01:39:52;0.40;66.70
4677;DHT22;2352;48.180;11.478;2024-01-15T01:44:56;0.20;65.60
4677;DHT22;2352;48.180;11.478;2024-01-15T01:49:59;0.10;65.60
4677;DHT22;2352;48.180;11.478;2024-01-15T01:55:04;0.20;65.60
4677;DHT22;2352;48.180;11.478;2024-01-15T02:00:12;0.20;65.40
4677;DHT22;2352;48.180;11.478;2024-01-15T02:05:18;0.30;65.20
4677;DHT22;2352;48.180;11.478;2024-01-15T02:10:21;0.20;65.00
4677;DHT22;2352;48.180;11.478;2024-01-15T02:15:26;0.00;65.60
4677;DHT22;2352;48.180;11.478;2024-01-15T02:20:29;0.10;65.00
4677;DHT22;2352;48.180;11.478;2024-01-15T02:25:34;0.30;65.00
4677;DHT22;2352;48.180;11.478;2024-01-15T02:30:38;0.10;64.80
4677;DHT22;2352;48.180;11.478;2024-01-15T02:35:41;0.00;64.80
4677;DHT22;2352;48.180;11.478;2024-01-15T02:40:46;-3276.70;65.20
4677;DHT22;2352;48.180;11.478;2024-01-15T02:45:49;-3276.70;65.50
4677;DHT22;2352;48.180;11.478;2024-01-15T02:50:52;-3276.70;65.50
4677;DHT22;2352;48.180;11.478;2024-01-15T02:55:56;0.00;65.60
4677;DHT22;2352;48.180;11.478;2024-01-15T03:00:59;0.00;65.90
4677;DHT22;2352;48.180;11.478;2024-01-15T03:06:03;0.00;66.10
4677;DHT22;2352;48.180;11.478;2024-01-15T03:11:07;-3276.70;66.20
4677;DHT22;2352;48.180;11.478;2024-01-15T03:16:10;0.00;66.50
4677;DHT22;2352;48.180;11.478;2024-01-15T03:21:13;0.00;66.30
4677;DHT22;2352;48.180;11.478;2024-01-15T03:26:17;0.00;66.30
4677;DHT22;2352;48.180;11.478;2024-01-15T03:31:20;0.00;66.50
4677;DHT22;2352;48.180;11.478;2024-01-15T03:36:23;-3276.70;66.50
4677;DHT22;2352;48.180;11.478;2024-01-15T03:41:28;0.00;66.10
4677;DHT22;2352;48.180;11.478;2024-01-15T03:46:31;0.00;66.10
4677;DHT22;2352;48.180;11.478;2024-01-15T03:51:34;0.00;66.00
4677;DHT22;2352;48.180;11.478;2024-01-15T03:56:38;0.00;66.10
4677;DHT22;2352;48.180;11.478;2024-01-15T04:01:41;-3276.50;66.80
4677;DHT22;2352;48.180;11.478;2024-01-15T04:06:50;-3276.60;66.50
4677;DHT22;2352;48.180;11.478;2024-01-15T04:11:55;0.00;66.60
4677;DHT22;2352;48.180;11.478;2024-01-15T04:16:57;0.00;66.40
4677;DHT22;2352;48.180;11.478;2024-01-15T04:22:00;0.10;66.10
4677;DHT22;2352;48.180;11.478;2024-01-15T04:27:05;0.00;66.50
4677;DHT22;2352;48.180;11.478;2024-01-15T04:32:08;0.10;66.50
4677;DHT22;2352;48.180;11.478;2024-01-15T04:37:11;0.00;66.40
4677;DHT22;2352;48.180;11.478;2024-01-15T04:42:15;-3276.70;66.80
4677;DHT22;2352;48.180;11.478;2024-01-15T04:47:18;-3276.70;66.90
4677;DHT22;2352;48.180;11.478;2024-01-15T04:52:21;-3276.70;66.90
4677;DHT22;2352;48.180;11.478;2024-01-15T04:57:26;0.00;66.70
4677;DHT22;2352;48.180;11.478;2024-01-15T05:02:29;0.10;66.30
4677;DHT22;2352;48.180;11.478;2024-01-15T05:07:32;0.10;66.30
4677;DHT22;2352;48.180;11.478;2024-01-15T05:12:36;0.00;66.50
4677;DHT22;2352;48.180;11.478;2024-01-15T05:17:39;0.00;66.50
4677;DHT22;2352;48.180;11.478;2024-01-15T05:22:42;0.20;66.50
4677;DHT22;2352;48.180;11.478;2024-01-15T05:27:46;0.00;66.50
4677;DHT22;2352;48.180;11.478;2024-01-15T05:32:50;0.00;66.50
4677;DHT22;2352;48.180;11.478;2024-01-15T05:37:52;0.00;66.60
4677;DHT22;2352;48.180;11.478;2024-01-15T05:42:57;0.00;67.00
4677;DHT22;2352;48.180;11.478;2024-01-15T05:48:00;0.00;66.90
4677;DHT22;2352;48.180;11.478;2024-01-15T05:53:03;0.00;66.50
4677;DHT22;2352;48.180;11.478;2024-01-15T05:58:07;0.10;66.70
4677;DHT22;2352;48.180;11.478;2024-01-15T06:03:10;0.00;66.40
4677;DHT22;2352;48.180;11.478;2024-01-15T06:08:13;0.00;66.00
4677;DHT22;2352;48.180;11.478;2024-01-15T06:13:18;0.00;66.10
4677;DHT22;2352;48.180;11.478;2024-01-15T06:18:21;0.00;66.10
4677;DHT22;2352;48.180;11.478;2024-01-15T06:23:24;0.00;65.90
4677;DHT22;2352;48.180;11.478;2024-01-15T06:28:28;0.00;66.00
4677;DHT22;2352;48.180;11.478;2024-01-15T06:33:31;0.10;66.00
4677;DHT22;2352;48.180;11.478;2024-01-15T06:38:35;0.20;66.00
4677;DHT22;2352;48.180;11.478;2024-01-15T06:43:39;0.10;65.60
4677;DHT22;2352;48.180;11.478;2024-01-15T06:48:42;0.20;65.50
4677;DHT22;2352;48.180;11.478;2024-01-15T06:53:45;0.10;65.60
4677;DHT22;2352;48.180;11.478;2024-01-15T06:58:49;0.10;65.70
4677;DHT22;2352;48.180;11.478;2024-01-15T07:03:52;0.00;66.00
4677;DHT22;2352;48.180;11.478;2024-01-15T07:08:55;0.00;66.80
4677;DHT22;2352;48.180;11.478;2024-01-15T07:13:59;0.00;66.10
4677;DHT22;2352;48.180;11.478;2024-01-15T07:19:02;-3276.70;66.60
4677;DHT22;2352;48.180;11.478;2024-01-15T07:24:06;-3276.70;66.60
4677;DHT22;2352;48.180;11.478;2024-01-15T07:29:10;0.00;66.60
4677;DHT22;2352;48.180;11.478;2024-01-15T07:34:13;0.00;66.50
4677;DHT22;2352;48.180;11.478;2024-01-15T07:39:17;0.00;66.50
4677;DHT22;2352;48.180;11.478;2024-01-15T07:44:21;0.10;66.60
4677;DHT22;2352;48.180;11.478;2024-01-15T07:49:24;0.10;66.90
4677;DHT22;2352;48.180;11.478;2024-01-15T07:54:27;0.10;66.60
4677;DHT22;2352;48.180;11.478;2024-01-15T07:59:32;0.10;66.80
4677;DHT22;2352;48.180;11.478;2024-01-15T08:04:34;0.10;67.10
4677;DHT22;2352;48.180;11.478;2024-01-15T08:09:39;0.30;66.90
4677;DHT22;2352;48.180;11.478;2024-01-15T08:14:43;0.30;66.80
4677;DHT22;2352;48.180;11.478;2024-01-15T08:19:47;0.40;66.80
4677;DHT22;2352;48.180;11.478;2024-01-15T08:24:50;0.30;66.80
4677;DHT22;2352;48.180;11.478;2024-01-15T08:29:55;0.40;66.80
4677;DHT22;2352;48.180;11.478;2024-01-15T08:34:58;0.40;66.60
4677;DHT22;2352;48.180;11.478;2024-01-15T08:40:01;0.30;66.80
4677;DHT22;2352;48.180;11.478;2024-01-15T08:45:06;0.30;66.90
4677;DHT22;2352;48.180;11.478;2024-01-15T08:50:09;0.50;66.70
4677;DHT22;2352;48.180;11.478;2024-01-15T08:55:12;0.30;67.00
4677;DHT22;2352;48.180;11.478;2024-01-15T09:00:17;0.50;67.00
4677;DHT22;2352;48.180;11.478;2024-01-15T09:05:20;0.50;66.70
4677;DHT22;2352;48.180;11.478;2024-01-15T09:10:23;0.50;66.80
4677;DHT22;2352;48.180;11.478;2024-01-15T09:15:28;0.50;66.80
4677;DHT22;2352;48.180;11.478;2024-01-15T09:20:31;0.70;66.80
4677;DHT22;2352;48.180;11.478;2024-01-15T09:25:34;0.60;66.40
4677;DHT22;2352;48.180;11.478;2024-01-15T09:30:38;0.70;66.50
4677;DHT22;2352;48.180;11.478;2024-01-15T09:35:41;0.80;66.30
4677;DHT22;2352;48.180;11.478;2024-01-15T09:40:45;0.70;66.50
4677;DHT22;2352;48.180;11.478;2024-01-15T09:45:51;0.70;66.40
4677;DHT22;2352;48.180;11.478;2024-01-15T09:50:56;0.80;66.40
4677;DHT22;2352;48.180;11.478;2024-01-15T09:56:00;0.90;66.10
4677;DHT22;2352;48.180;11.478;2024-01-15T10:01:04;0.80;65.60
4677;DHT22;2352;48.180;11.478;2024-01-15T10:06:11;0.90;65.70
4677;DHT22;2352;48.180;11.478;2024-01-15T10:11:23;1.00;65.20
4677;DHT22;2352;48.180;11.478;2024-01-15T10:16:27;1.00;65.10
4677;DHT22;2352;48.180;11.478;2024-01-15T10:21:32;0.90;64.70
4677;DHT22;2352;48.180;11.478;2024-01-15T10:26:36;0.90;64.60
4677;DHT22;2352;48.180;11.478;2024-01-15T10:31:40;0.90;64.60
4677;DHT22;2352;48.180;11.478;2024-01-15T10:36:45;1.10;64.70
4677;DHT22;2352;48.180;11.478;2024-01-15T10:41:50;1.20;64.20
4677;DHT22;2352;48.180;11.478;2024-01-15T10:46:55;1.30;64.40
4677;DHT22;2352;48.180;11.478;2024-01-15T10:52:00;1.40;64.30
4677;DHT22;2352;48.180;11.478;2024-01-15T10:57:04;1.40;64.10
4677;DHT22;2352;48.180;11.478;2024-01-15T11:02:09;1.50;64.30
4677;DHT22;2352;48.180;11.478;2024-01-15T11:07:13;1.60;64.10
4677;DHT22;2352;48.180;11.478;2024-01-15T11:12:17;1.60;64.10
4677;DHT22;2352;48.180;11.478;2024-01-15T11:17:22;1.70;63.90
4677;DHT22;2352;48.180;11.478;2024-01-15T11:22:47;1.80;64.30
4677;DHT22;2352;48.180;11.478;2024-01-15T11:27:51;1.90;63.90
4677;DHT22;2352;48.180;11.478;2024-01-15T11:32:58;1.60;64.20
4677;DHT22;2352;48.180;11.478;2024-01-15T11:38:01;1.80;64.80
4677;DHT22;2352;48.180;11.478;2024-01-15T11:43:04;2.00;64.80
4677;DHT22;2352;48.180;11.478;2024-01-15T11:48:13;2.40;63.90
4677;DHT22;2352;48.180;11.478;2024-01-15T11:53:25;2.80;63.00
4677;DHT22;2352;48.180;11.478;2024-01-15T11:58:30;3.00;61.70
4677;DHT22;2352;48.180;11.478;2024-01-15T12:03:35;3.40;61.20
4677;DHT22;2352;48.180;11.478;2024-01-15T12:08:38;3.70;60.30
4677;DHT22;2352;48.180;11.478;2024-01-15T12:13:41;3.80;59.70
4677;DHT22;2352;48.180;11.478;2024-01-15T12:18:45;4.00;59.30
4677;DHT22;2352;48.180;11.478;2024-01-15T12:23:49;3.90;58.30
4677;DHT22;2352;48.180;11.478;2024-01-15T12:28:54;3.60;59.40
4677;DHT22;2352;48.180;11.478;2024-01-15T12:34:01;3.90;58.70
4677;DHT22;2352;48.180;11.478;2024-01-15T12:39:05;4.00;57.90
4677;DHT22;2352;48.180;11.478;2024-01-15T12:44:10;3.90;57.10
4677;DHT22;2352;48.180;11.478;2024-01-15T12:49:14;4.10;57.20
4677;DHT22;2352;48.180;11.478;2024-01-15T12:54:17;4.50;57.50
4677;DHT22;2352;48.180;11.478;2024-01-15T12:59:20;6.70;53.10
4677;DHT22;2352;48.180;11.478;2024-01-15T13:04:25;6.40;52.50
4677;DHT22;2352;48.180;11.478;2024-01-15T13:09:28;5.00;56.40
4677;DHT22;2352;48.180;11.478;2024-01-15T13:14:31;4.40;58.30
4677;DHT22;2352;48.180;11.478;2024-01-15T13:19:35;3.70;59.20
4677;DHT22;2352;48.180;11.478;2024-01-15T13:24:39;3.20;60.90
4677;DHT22;2352;48.180;11.478;2024-01-15T13:29:42;3.20;61.40
4677;DHT22;2352;48.180;11.478;2024-01-15T13:34:46;3.10;61.90
4677;DHT22;2352;48.180;11.478;2024-01-15T13:39:49;3.00;62.00
4677;DHT22;2352;48.180;11.478;2024-01-15T13:44:53;3.00;62.40
4677;DHT22;2352;48.180;11.478;2024-01-15T13:49:58;3.00;62.40
4677;DHT22;2352;48.180;11.478;2024-01-15T13:55:02;2.90;62.50
4677;DHT22;2352;48.180;11.478;2024-01-15T14:00:06;2.80;62.60
4677;DHT22;2352;48.180;11.478;2024-01-15T14:05:15;2.70;62.60
4677;DHT22;2352;48.180;11.478;2024-01-15T14:10:18;2.60;63.30
4677;DHT22;2352;48.180;11.478;2024-01-15T14:15:22;2.50;63.80
4677;DHT22;2352;48.180;11.478;2024-01-15T14:20:26;2.40;64.00
4677;DHT22;2352;48.180;11.478;2024-01-15T14:25:29;2.40;64.60
4677;DHT22;2352;48.180;11.478;2024-01-15T14:30:32;2.50;64.60
4677;DHT22;2352;48.180;11.478;2024-01-15T14:35:36;2.50;64.90
4677;DHT22;2352;48.180;11.478;2024-01-15T14:40:39;2.60;65.40
4677;DHT22;2352;48.180;11.478;2024-01-15T14:45:42;2.50;65.60
4677;DHT22;2352;48.180;11.478;2024-01-15T14:50:49;2.50;65.60
4677;DHT22;2352;48.180;11.478;2024-01-15T14:55:52;2.40;65.40
4677;DHT22;2352;48.180;11.478;2024-01-15T15:00:55;2.30;65.20
4677;DHT22;2352;48.180;11.478;2024-01-15T15:06:00;2.30;64.90
4677;DHT22;2352;48.180;11.478;2024-01-15T15:11:04;2.20;65.10
4677;DHT22;2352;48.180;11.478;2024-01-15T15:16:07;2.20;65.20
4677;DHT22;2352;48.180;11.478;2024-01-15T15:21:11;2.10;65.30
4677;DHT22;2352;48.180;11.478;2024-01-15T15:26:14;2.20;65.20
4677;DHT22;2352;48.180;11.478;2024-01-15T15:31:17;2.10;64.90
4677;DHT22;2352;48.180;11.478;2024-01-15T15:36:21;2.10;65.30
4677;DHT22;2352;48.180;11.478;2024-01-15T15:41:25;2.20;64.70
4677;DHT22;2352;48.180;11.478;2024-01-15T15:46:29;2.10;64.70
4677;DHT22;2352;48.180;11.478;2024-01-15T15:51:34;2.00;65.00
4677;DHT22;2352;48.180;11.478;2024-01-15T15:56:38;2.00;65.10
4677;DHT22;2352;48.180;11.478;2024-01-15T16:01:41;1.80;66.30
4677;DHT22;2352;48.180;11.478;2024-01-15T16:06:45;1.90;66.80
4677;DHT22;2352;48.180;11.478;2024-01-15T16:11:49;2.00;67.20
4677;DHT22;2352;48.180;11.478;2024-01-15T16:16:52;2.00;69.10
4677;DHT22;2352;48.180;11.478;2024-01-15T16:22:20;2.00;70.30
4677;DHT22;2352;48.180;11.478;2024-01-15T16:27:43;2.00;70.50
4677;DHT22;2352;48.180;11.478;2024-01-15T16:32:46;2.10;70.50
4677;DHT22;2352;48.180;11.478;2024-01-15T16:37:51;1.90;71.30
4677;DHT22;2352;48.180;11.478;2024-01-15T16:42:54;1.90;71.40
4677;DHT22;2352;48.180;11.478;2024-01-15T16:47:57;1.80;71.60
4677;DHT22;2352;48.180;11.478;2024-01-15T16:53:02;1.80;71.60
4677;DHT22;2352;48.180;11.478;2024-01-15T16:58:05;1.60;72.40
4677;DHT22;2352;48.180;11.478;2024-01-15T17:03:08;1.50;72.70
4677;DHT22;2352;48.180;11.478;2024-01-15T17:08:12;1.70;72.90
4677;DHT22;2352;48.180;11.478;2024-01-15T17:13:15;1.80;72.70
4677;DHT22;2352;48.180;11.478;2024-01-15T17:18:18;1.80;72.90
4677;DHT22;2352;48.180;11.478;2024-01-15T17:23:22;1.80;73.00
4677;DHT22;2352;48.180;11.478;2024-01-15T17:28:25;1.80;73.40
4677;DHT22;2352;48.180;11.478;2024-01-15T17:33:28;1.80;73.30
4677;DHT22;2352;48.180;11.478;2024-01-15T17:38:33;1.20;74.20
4677;DHT22;2352;48.180;11.478;2024-01-15T17:43:36;0.60;75.50
4677;DHT22;2352;48.180;11.478;2024-01-15T17:48:38;0.00;77.10
4677;DHT22;2352;48.180;11.478;2024-01-15T17:53:43;-3276.50;77.90
4677;DHT22;2352;48.180;11.478;2024-01-15T17:58:46;-3276.70;77.10
4677;DHT22;2352;48.180;11.478;2024-01-15T18:03:50;-3276.70;77.50
4677;DHT22;2352;48.180;11.478;2024-01-15T18:08:55;0.10;76.90
4677;DHT22;2352;48.180;11.478;2024-01-15T18:13:58;0.10;76.30
4677;DHT22;2352;48.180;11.478;2024-01-15T18:19:01;0.30;76.00
4677;DHT22;2352;48.180;11.478;2024-01-15T18:24:06;0.30;75.10
4677;DHT22;2352;48.180;11.478;2024-01-15T18:29:08;0.30;74.50
4677;DHT22;2352;48.180;11.478;2024-01-15T18:34:11;0.00;73.90
4677;DHT22;2352;48.180;11.478;2024-01-15T18:39:17;0.30;74.00
4677;DHT22;2352;48.180;11.478;2024-01-15T18:44:21;0.40;73.30
4677;DHT22;2352;48.180;11.478;2024-01-15T18:49:24;0.50;72.80
4677;DHT22;2352;48.180;11.478;2024-01-15T18:54:28;0.40;72.10
4677;DHT22;2352;48.180;11.478;2024-01-15T18:59:31;0.40;71.80
4677;DHT22;2352;48.180;11.478;2024-01-15T19:04:36;0.40;71.20
4677;DHT22;2352;48.180;11.478;2024-01-15T19:09:40;0.30;70.40
4677;DHT22;2352;48.180;11.478;2024-01-15T19:14:43;0.30;70.50
4677;DHT22;2352;48.180;11.478;2024-01-15T19:19:46;0.30;69.40
4677;DHT22;2352;48.180;11.478;2024-01-15T19:24:54;0.10;68.70
4677;DHT22;2352;48.180;11.478;2024-01-15T19:29:57;0.20;68.30
4677;DHT22;2352;48.180;11.478;2024-01-15T19:35:00;0.10;68.10
4677;DHT22;2352;48.180;11.478;2024-01-15T19:40:05;0.20;67.70
4677;DHT22;2352;48.180;11.478;2024-01-15T19:45:09;0.20;67.50
4677;DHT22;2352;48.180;11.478;2024-01-15T19:50:12;0.00;67.60
4677;DHT22;2352;48.180;11.478;2024-01-15T19:55:16;0.00;67.60
4677;DHT22;2352;48.180;11.478;2024-01-15T20:00:20;0.00;67.60
4677;DHT22;2352;48.180;11.478;2024-01-15T20:05:23;-3276.70;67.60
4677;DHT22;2352;48.180;11.478;2024-01-15T20:10:27;-3276.60;67.40
4677;DHT22;2352;48.180;11.478;2024-01-15T20:15:30;-3276.60;67.30
4677;DHT22;2352;48.180;11.478;2024-01-15T20:20:36;-3276.60;67.20
4677;DHT22;2352;48.180;11.478;2024-01-15T20:25:44;-3276.50;67.60
4677;DHT22;2352;48.180;11.478;2024-01-15T20:30:47;-3276.60;67.60
4677;DHT22;2352;48.180;11.478;2024-01-15T20:35:50;-3276.50;67.60
4677;DHT22;2352;48.180;11.478;2024-01-15T20:40:56;-3276.50;67.30
4677;DHT22;2352;48.180;11.478;2024-01-15T20:46:00;-3276.60;67.00
4677;DHT22;2352;48.180;11.478;2024-01-15T20:51:03;-3276.50;66.50
4677;DHT22;2352;48.180;11.478;2024-01-15T20:56:08;-3276.40;66.60
4677;DHT22;2352;48.180;11.478;2024-01-15T21:01:11;-3276.40;67.80
4677;DHT22;2352;48.180;11.478;2024-01-15T21:06:14;-3276.30;66.30
4677;DHT22;2352;48.180;11.478;2024-01-15T21:11:20;-3276.30;66.50
4677;DHT22;2352;48.180;11.478;2024-01-15T21:16:23;-3276.30;66.60
4677;DHT22;2352;48.180;11.478;2024-01-15T21:21:25;-3276.10;66.70
4677;DHT22;2352;48.180;11.478;2024-01-15T21:26:30;-3276.00;67.00
4677;DHT22;2352;48.180;11.478;2024-01-15T21:31:36;-3276.20;66.90
4677;DHT22;2352;48.180;11.478;2024-01-15T21:36:39;-3276.00;67.00
4677;DHT22;2352;48.180;11.478;2024-01-15T21:41:44;-3276.20;66.90
4677;DHT22;2352;48.180;11.478;2024-01-15T21:46:47;-3276.20;66.80
4677;DHT22;2352;48.180;11.478;2024-01-15T21:51:50;-3276.10;66.90
4677;DHT22;2352;48.180;11.478;2024-01-15T21:56:55;-3276.20;66.90
4677;DHT22;2352;48.180;11.478;2024-01-15T22:01:58;-3276.30;66.50
4677;DHT22;2352;48.180;11.478;2024-01-15T22:07:06;-3276.10;66.50
4677;DHT22;2352;48.180;11.478;2024-01-15T22:12:10;-3276.10;66.80
4677;DHT22;2352;48.180;11.478;2024-01-15T22:17:14;-3276.20;66.90
4677;DHT22;2352;48.180;11.478;2024-01-15T22:22:17;-3276.20;66.90
4677;DHT22;2352;48.180;11.478;2024-01-15T22:27:21;-3276.20;66.80
4677;DHT22;2352;48.180;11.478;2024-01-15T22:32:24;-3276.20;66.90
4677;DHT22;2352;48.180;11.478;2024-01-15T22:37:31;-3276.00;66.50
4677;DHT22;2352;48.180;11.478;2024-01-15T22:42:36;-3276.00;66.10
4677;DHT22;2352;48.180;11.478;2024-01-15T22:47:39;-3276.10;65.50
4677;DHT22;2352;48.180;11.478;2024-01-15T22:52:42;-3276.00;64.80
4677;DHT22;2352;48.180;11.478;2024-01-15T22:57:46;-3276.00;64.80
4677;DHT22;2352;48.180;11.478;2024-01-15T23:02:49;-3276.00;64.00
4677;DHT22;2352;48.180;11.478;2024-01-15T23:07:53;-3275.80;64.30
4677;DHT22;2352;48.180;11.478;2024-01-15T23:12:58;-3275.90;64.30
4677;DHT22;2352;48.180;11.478;2024-01-15T23:18:00;-3275.90;63.90
4677;DHT22;2352;48.180;11.478;2024-01-15T23:23:04;-3276.00;63.80
4677;DHT22;2352;48.180;11.478;2024-01-15T23:28:08;-3275.80;63.80
4677;DHT22;2352;48.180;11.478;2024-01-15T23:33:11;-3275.90;63.70
4677;DHT22;2352;48.180;11.478;2024-01-15T23:38:15;-3275.90;63.30
4677;DHT22;2352;48.180;11.478;2024-01-15T23:43:19;-3276.00;63.50
4677;DHT22;2352;48.180;11.478;2024-01-15T23:48:22;-3276.10;63.80
4677;DHT22;2352;48.180;11.478;2024-01-15T23:53:25;-3276.20;63.30
4677;DHT22;2352;48.180;11.478;2024-01-15T23:58:30;-3276.20;63.20
